Monday, December 18, 2017, 7:51 AM EST
Back to Local

KPOU, Poughkeepsie Dutchess Cty

Location: Wappingers Falls, NY, United States Lat: 41.633
Local Time: 7:51 AM EST (12:51 GMT) Lon: -73.883
Time Zone: US/Eastern Elev: 167 ft

Show me the last for .
Show Coded

Time T Td Feel RH Dir Speed Gust Alt SLP Vis Weather Sky Remarks
2017-12-18 06:53 28 19 - 68 - Calm - 30.14 30.13 10 OVC017 6-hr Min Temp (7am): 27.0°F
6-hr Max Temp (7am): 28.0°F
2017-12-18 05:53 28 18 - 65 - Calm - 30.13 30.13 10 OVC019 None
2017-12-18 04:53 28 18 - 65 - Calm - 30.14 30.14 10 OVC020 None
2017-12-18 03:53 27 17 - 65 - Calm - 30.16 30.15 10 OVC019 None
2017-12-18 02:53 27 17 - 65 - Calm - 30.18 30.18 10 OVC017 None
2017-12-18 01:53 27 16 - 62 - Calm - 30.19 30.19 10 OVC019 None
2017-12-18 00:53 27 16 - 62 - Calm - 30.20 30.20 10 OVC021 6-hr Min Temp (1am): 27.0°F
6-hr Max Temp (1am): 28.0°F
2017-12-18 00:22 27 16 - 62 - Calm - 30.20 - 10 BKN022 OVC060 None
2017-12-17 23:53 27 16 23 62 360° 3 - 30.21 30.20 10 OVC060 24-hr Min Temp (12am): 15.1°F
24-hr Max Temp (12am): 30.0°F
2017-12-17 22:53 27 16 23 62 360° 3 - 30.23 30.23 10 OVC065 None
2017-12-17 21:53 27 16 - 62 - Calm - 30.24 30.23 10 BKN060 OVC110 None
2017-12-17 20:53 27 15 - 60 - Calm - 30.26 30.26 10 BKN030 BKN060 OVC085 None
2017-12-17 19:53 28 15 24 57 360° 3 - 30.27 30.27 10 FEW030 SCT075 OVC090 None
2017-12-17 18:53 28 16 - 60 - Calm - 30.26 30.26 10 BKN034 6-hr Min Temp (7pm): 28.0°F
6-hr Max Temp (7pm): 30.0°F
2017-12-17 17:53 28 16 24 60 340° 3 - 30.26 30.26 10 CLR None
2017-12-17 16:53 29 17 25 60 30° 3 - 30.25 30.24 10 OVC060 None
2017-12-17 15:53 30 15 - 53 - Calm - 30.24 30.24 10 BKN060 None
2017-12-17 14:53 29 14 - 53 - Calm - 30.25 30.24 10 OVC055 None
2017-12-17 13:53 29 15 - 55 - Calm - 30.24 30.23 10 CLR None
2017-12-17 12:53 28 15 - 57 - Calm - 30.26 30.25 10 BKN060 6-hr Min Temp (1pm): 15.1°F
6-hr Max Temp (1pm): 28.0°F
2017-12-17 11:53 27 14 20 57 350° 6 - 30.28 30.28 10 OVC065 None
2017-12-17 10:53 26 14 21 59 30° 5 - 30.30 30.29 10 OVC080 None
2017-12-17 09:53 24 13 - 61 - Calm - 30.31 30.30 10 BKN080 None
2017-12-17 08:53 19 13 - 76 - Calm - 30.30 30.30 10 FEW090 None
2017-12-17 07:53 16 11 - 80 - Calm - 30.30 30.30 10 SCT100 None

Support USWX by starting your Amazon purchase here.